sensor_id;sensor_type;location;lat;lon;timestamp;pressure;altitude;pressure_sealevel;temperature;humidity
42603;BME280;28233;55.748;48.752;2024-03-02T00:00:57;100611.56;;;-2.00;80.98
42603;BME280;28233;55.748;48.752;2024-03-02T00:03:00;100607.81;;;-1.99;81.29
42603;BME280;28233;55.748;48.752;2024-03-02T00:05:04;100608.63;;;-1.98;81.29
42603;BME280;28233;55.748;48.752;2024-03-02T00:07:07;100609.44;;;-1.98;81.47
42603;BME280;28233;55.748;48.752;2024-03-02T00:09:11;100611.94;;;-1.96;81.47
42603;BME280;28233;55.748;48.752;2024-03-02T00:11:16;100604.31;;;-1.99;81.06
42603;BME280;28233;55.748;48.752;2024-03-02T00:13:21;100600.56;;;-2.05;81.31
42603;BME280;28233;55.748;48.752;2024-03-02T00:17:38;100603.50;;;-2.06;81.40
42603;BME280;28233;55.748;48.752;2024-03-02T00:19:42;100614.66;;;-2.09;81.59
42603;BME280;28233;55.748;48.752;2024-03-02T00:21:45;100607.03;;;-2.13;80.92
42603;BME280;28233;55.748;48.752;2024-03-02T00:23:48;100610.97;;;-2.15;81.46
42603;BME280;28233;55.748;48.752;2024-03-02T00:25:55;100613.28;;;-2.19;81.46
42603;BME280;28233;55.748;48.752;2024-03-02T00:28:00;100608.91;;;-2.20;81.80
42603;BME280;28233;55.748;48.752;2024-03-02T00:32:37;100613.84;;;-2.17;82.12
42603;BME280;28233;55.748;48.752;2024-03-02T00:34:40;100620.47;;;-2.13;81.89
42603;BME280;28233;55.748;48.752;2024-03-02T00:36:43;100609.09;;;-2.08;81.64
42603;BME280;28233;55.748;48.752;2024-03-02T00:38:49;100618.41;;;-2.04;81.66
42603;BME280;28233;55.748;48.752;2024-03-02T00:40:52;100619.22;;;-2.03;81.39
42603;BME280;28233;55.748;48.752;2024-03-02T00:42:56;100612.19;;;-2.04;81.96
42603;BME280;28233;55.748;48.752;2024-03-02T00:44:58;100621.09;;;-2.04;81.44
42603;BME280;28233;55.748;48.752;2024-03-02T00:47:01;100621.09;;;-2.04;81.79
42603;BME280;28233;55.748;48.752;2024-03-02T00:49:23;100621.91;;;-2.03;81.78
42603;BME280;28233;55.748;48.752;2024-03-02T00:51:27;100621.91;;;-2.03;81.66
42603;BME280;28233;55.748;48.752;2024-03-02T00:53:30;100616.72;;;-2.05;81.67
42603;BME280;28233;55.748;48.752;2024-03-02T00:55:36;100615.09;;;-2.06;81.77
42603;BME280;28233;55.748;48.752;2024-03-02T00:57:39;100614.03;;;-2.05;81.44
42603;BME280;28233;55.748;48.752;2024-03-02T00:59:43;100616.13;;;-2.07;81.53
42603;BME280;28233;55.748;48.752;2024-03-02T01:01:47;100616.78;;;-2.11;81.52
42603;BME280;28233;55.748;48.752;2024-03-02T01:03:50;100619.66;;;-2.13;81.94
42603;BME280;28233;55.748;48.752;2024-03-02T01:05:53;100618.22;;;-2.16;81.75
42603;BME280;28233;55.748;48.752;2024-03-02T01:07:55;100631.25;;;-2.19;81.73
42603;BME280;28233;55.748;48.752;2024-03-02T01:09:58;100628.81;;;-2.21;81.55
42603;BME280;28233;55.748;48.752;2024-03-02T01:12:01;100620.50;;;-2.26;81.75
42603;BME280;28233;55.748;48.752;2024-03-02T01:14:04;100629.00;;;-2.29;82.08
42603;BME280;28233;55.748;48.752;2024-03-02T01:16:07;100629.44;;;-2.32;82.15
42603;BME280;28233;55.748;48.752;2024-03-02T01:18:09;100630.69;;;-2.35;82.34
42603;BME280;28233;55.748;48.752;2024-03-02T01:20:12;100621.81;;;-2.42;82.90
42603;BME280;28233;55.748;48.752;2024-03-02T01:22:15;100630.50;;;-2.40;82.94
42603;BME280;28233;55.748;48.752;2024-03-02T01:24:18;100614.53;;;-2.48;82.96
42603;BME280;28233;55.748;48.752;2024-03-02T01:26:20;100627.81;;;-2.46;82.89
42603;BME280;28233;55.748;48.752;2024-03-02T01:28:23;100622.63;;;-2.48;83.02
42603;BME280;28233;55.748;48.752;2024-03-02T01:30:26;100627.38;;;-2.50;83.06
42603;BME280;28233;55.748;48.752;2024-03-02T01:32:29;100633.38;;;-2.55;83.08
42603;BME280;28233;55.748;48.752;2024-03-02T01:34:32;100632.56;;;-2.62;83.99
42603;BME280;28233;55.748;48.752;2024-03-02T01:36:34;100630.50;;;-2.60;83.90
42603;BME280;28233;55.748;48.752;2024-03-02T01:38:37;100635.06;;;-2.60;83.77
42603;BME280;28233;55.748;48.752;2024-03-02T01:40:40;100629.88;;;-2.62;83.59
42603;BME280;28233;55.748;48.752;2024-03-02T01:42:44;100628.22;;;-2.63;83.78
42603;BME280;28233;55.748;48.752;2024-03-02T01:44:47;100634.63;;;-2.64;83.43
42603;BME280;28233;55.748;48.752;2024-03-02T01:46:50;100636.31;;;-2.63;84.10
42603;BME280;28233;55.748;48.752;2024-03-02T01:48:53;100630.69;;;-2.61;84.16
42603;BME280;28233;55.748;48.752;2024-03-02T01:50:56;100644.56;;;-2.58;84.16
42603;BME280;28233;55.748;48.752;2024-03-02T01:53:00;100642.94;;;-2.59;84.52
42603;BME280;28233;55.748;48.752;2024-03-02T01:55:05;100640.00;;;-2.57;84.59
42603;BME280;28233;55.748;48.752;2024-03-02T01:57:10;100639.81;;;-2.56;84.82
42603;BME280;28233;55.748;48.752;2024-03-02T01:59:12;100648.72;;;-2.55;85.35
42603;BME280;28233;55.748;48.752;2024-03-02T02:01:16;100644.56;;;-2.51;85.17
42603;BME280;28233;55.748;48.752;2024-03-02T02:03:19;100650.78;;;-2.50;85.29
42603;BME280;28233;55.748;48.752;2024-03-02T02:05:22;100649.72;;;-2.49;85.59
42603;BME280;28233;55.748;48.752;2024-03-02T02:07:25;100652.84;;;-2.46;85.77
42603;BME280;28233;55.748;48.752;2024-03-02T02:09:28;100651.41;;;-2.48;85.86
42603;BME280;28233;55.748;48.752;2024-03-02T02:11:30;100648.28;;;-2.39;86.18
42603;BME280;28233;55.748;48.752;2024-03-02T02:13:33;100650.56;;;-2.36;86.28
42603;BME280;28233;55.748;48.752;2024-03-02T02:15:36;100647.66;;;-2.34;86.12
42603;BME280;28233;55.748;48.752;2024-03-02T02:17:39;100654.50;;;-2.31;86.16
42603;BME280;28233;55.748;48.752;2024-03-02T02:19:42;100654.91;;;-2.35;86.55
42603;BME280;28233;55.748;48.752;2024-03-02T02:21:45;100651.41;;;-2.35;86.85
42603;BME280;28233;55.748;48.752;2024-03-02T02:23:48;100647.84;;;-2.36;87.38
42603;BME280;28233;55.748;48.752;2024-03-02T02:25:51;100660.06;;;-2.26;87.67
42603;BME280;28233;55.748;48.752;2024-03-02T02:27:54;100660.25;;;-2.21;87.53
42603;BME280;28233;55.748;48.752;2024-03-02T02:29:57;100651.56;;;-2.17;87.74
42603;BME280;28233;55.748;48.752;2024-03-02T02:32:00;100666.88;;;-2.10;87.81
42603;BME280;28233;55.748;48.752;2024-03-02T02:34:03;100667.50;;;-2.08;87.64
42603;BME280;28233;55.748;48.752;2024-03-02T02:36:06;100668.94;;;-2.06;87.78
42603;BME280;28233;55.748;48.752;2024-03-02T02:38:09;100666.88;;;-2.04;87.72
42603;BME280;28233;55.748;48.752;2024-03-02T02:40:12;100679.28;;;-2.03;87.72
42603;BME280;28233;55.748;48.752;2024-03-02T02:42:15;100681.16;;;-2.03;87.38
42603;BME280;28233;55.748;48.752;2024-03-02T02:44:18;100682.22;;;-2.04;87.58
42603;BME280;28233;55.748;48.752;2024-03-02T02:46:20;100680.78;;;-2.07;87.41
42603;BME280;28233;55.748;48.752;2024-03-02T02:48:23;100677.03;;;-2.06;87.72
42603;BME280;28233;55.748;48.752;2024-03-02T02:50:26;100678.66;;;-2.05;87.52
42603;BME280;28233;55.748;48.752;2024-03-02T02:52:35;100683.41;;;-2.00;87.43
42603;BME280;28233;55.748;48.752;2024-03-02T02:54:39;100682.59;;;-1.94;87.18
42603;BME280;28233;55.748;48.752;2024-03-02T02:56:42;100681.97;;;-1.89;86.16
42603;BME280;28233;55.748;48.752;2024-03-02T02:58:44;100675.94;;;-1.85;86.21
42603;BME280;28233;55.748;48.752;2024-03-02T03:00:47;100669.31;;;-1.82;85.82
42603;BME280;28233;55.748;48.752;2024-03-02T03:02:50;100672.19;;;-1.77;85.59
42603;BME280;28233;55.748;48.752;2024-03-02T03:04:53;100679.00;;;-1.75;85.85
42603;BME280;28233;55.748;48.752;2024-03-02T03:06:56;100670.31;;;-1.77;85.34
42603;BME280;28233;55.748;48.752;2024-03-02T03:08:59;100681.50;;;-1.80;84.94
42603;BME280;28233;55.748;48.752;2024-03-02T03:11:01;100684.41;;;-1.81;85.46
42603;BME280;28233;55.748;48.752;2024-03-02T03:13:04;100685.47;;;-1.82;85.41
42603;BME280;28233;55.748;48.752;2024-03-02T03:15:10;100685.66;;;-1.84;85.16
42603;BME280;28233;55.748;48.752;2024-03-02T03:17:14;100690.66;;;-1.87;85.57
42603;BME280;28233;55.748;48.752;2024-03-02T03:19:17;100681.97;;;-1.89;85.72
42603;BME280;28233;55.748;48.752;2024-03-02T03:21:20;100694.81;;;-1.92;85.58
42603;BME280;28233;55.748;48.752;2024-03-02T03:23:23;100689.84;;;-1.95;85.94
42603;BME280;28233;55.748;48.752;2024-03-02T03:25:26;100682.81;;;-2.02;86.01
42603;BME280;28233;55.748;48.752;2024-03-02T03:27:29;100686.75;;;-2.05;86.40
42603;BME280;28233;55.748;48.752;2024-03-02T03:29:32;100689.03;;;-2.08;86.83
42603;BME280;28233;55.748;48.752;2024-03-02T03:31:34;100689.03;;;-2.08;86.99
42603;BME280;28233;55.748;48.752;2024-03-02T03:33:38;100692.75;;;-2.09;86.95
42603;BME280;28233;55.748;48.752;2024-03-02T03:35:40;100699.19;;;-2.10;87.00
42603;BME280;28233;55.748;48.752;2024-03-02T03:37:43;100698.78;;;-2.14;87.11
42603;BME280;28233;55.748;48.752;2024-03-02T03:39:46;100699.44;;;-2.19;87.76
42603;BME280;28233;55.748;48.752;2024-03-02T03:41:49;100696.31;;;-2.22;87.38
42603;BME280;28233;55.748;48.752;2024-03-02T03:43:51;100694.25;;;-2.27;88.02
42603;BME280;28233;55.748;48.752;2024-03-02T03:45:54;100699.00;;;-2.22;88.38
42603;BME280;28233;55.748;48.752;2024-03-02T03:47:57;100700.88;;;-2.23;87.93
42603;BME280;28233;55.748;48.752;2024-03-02T03:50:00;100707.06;;;-2.22;88.38
42603;BME280;28233;55.748;48.752;2024-03-02T03:52:03;100710.59;;;-2.22;88.48
42603;BME280;28233;55.748;48.752;2024-03-02T03:54:06;100715.97;;;-2.22;88.86
42603;BME280;28233;55.748;48.752;2024-03-02T03:56:09;100708.31;;;-2.25;88.70
42603;BME280;28233;55.748;48.752;2024-03-02T03:58:12;100706.66;;;-2.26;89.14
42603;BME280;28233;55.748;48.752;2024-03-02T04:00:15;100716.41;;;-2.25;88.76
42603;BME280;28233;55.748;48.752;2024-03-02T04:02:18;100715.78;;;-2.27;89.02
42603;BME280;28233;55.748;48.752;2024-03-02T04:04:21;100719.28;;;-2.26;89.38
42603;BME280;28233;55.748;48.752;2024-03-02T04:06:24;100717.22;;;-2.24;89.97
42603;BME280;28233;55.748;48.752;2024-03-02T04:08:27;100724.69;;;-2.20;90.01
42603;BME280;28233;55.748;48.752;2024-03-02T04:10:29;100721.16;;;-2.14;90.02
42603;BME280;28233;55.748;48.752;2024-03-02T04:12:32;100731.31;;;-2.09;89.94
42603;BME280;28233;55.748;48.752;2024-03-02T04:14:35;100724.06;;;-2.08;89.95
42603;BME280;28233;55.748;48.752;2024-03-02T04:16:40;100726.13;;;-2.04;89.79
42603;BME280;28233;55.748;48.752;2024-03-02T04:18:43;100725.91;;;-2.02;90.37
42603;BME280;28233;55.748;48.752;2024-03-02T04:20:45;100737.72;;;-1.97;90.52
42603;BME280;28233;55.748;48.752;2024-03-02T04:22:49;100736.84;;;-1.91;90.17
42603;BME280;28233;55.748;48.752;2024-03-02T04:24:52;100739.16;;;-1.81;90.34
42603;BME280;28233;55.748;48.752;2024-03-02T04:26:56;100740.34;;;-1.77;90.64
42603;BME280;28233;55.748;48.752;2024-03-02T04:28:58;100740.34;;;-1.70;90.70
42603;BME280;28233;55.748;48.752;2024-03-02T04:31:01;100740.97;;;-1.61;90.34
42603;BME280;28233;55.748;48.752;2024-03-02T04:33:04;100740.94;;;-1.48;90.00
42603;BME280;28233;55.748;48.752;2024-03-02T04:35:08;100739.00;;;-1.34;89.51
42603;BME280;28233;55.748;48.752;2024-03-02T04:37:11;100742.91;;;-1.23;89.58
42603;BME280;28233;55.748;48.752;2024-03-02T04:39:15;100738.91;;;-1.14;88.86
42603;BME280;28233;55.748;48.752;2024-03-02T04:41:19;100735.97;;;-1.06;88.69
42603;BME280;28233;55.748;48.752;2024-03-02T04:43:21;100740.06;;;-0.97;87.91
42603;BME280;28233;55.748;48.752;2024-03-02T04:45:24;100739.00;;;-0.89;87.11
42603;BME280;28233;55.748;48.752;2024-03-02T04:47:27;100742.25;;;-0.80;87.01
42603;BME280;28233;55.748;48.752;2024-03-02T04:49:30;100739.94;;;-0.70;86.91
42603;BME280;28233;55.748;48.752;2024-03-02T04:51:33;100735.94;;;-0.61;86.37
42603;BME280;28233;55.748;48.752;2024-03-02T04:53:36;100734.66;;;-0.58;85.90
42603;BME280;28233;55.748;48.752;2024-03-02T04:55:40;100734.22;;;-0.55;84.57
42603;BME280;28233;55.748;48.752;2024-03-02T04:57:43;100722.31;;;-0.48;84.71
42603;BME280;28233;55.748;48.752;2024-03-02T04:59:46;100732.41;;;-0.36;84.64
42603;BME280;28233;55.748;48.752;2024-03-02T05:01:49;100730.28;;;-0.28;84.73
42603;BME280;28233;55.748;48.752;2024-03-02T05:03:51;100743.28;;;-0.18;84.53
42603;BME280;28233;55.748;48.752;2024-03-02T05:05:54;100739.69;;;-0.12;83.42
42603;BME280;28233;55.748;48.752;2024-03-02T05:07:58;100740.88;;;-0.08;84.15
42603;BME280;28233;55.748;48.752;2024-03-02T05:10:01;100736.72;;;-0.04;84.16
42603;BME280;28233;55.748;48.752;2024-03-02T05:12:05;100734.56;;;0.05;84.08
42603;BME280;28233;55.748;48.752;2024-03-02T05:14:08;100733.13;;;0.21;83.68
42603;BME280;28233;55.748;48.752;2024-03-02T05:16:11;100733.75;;;0.41;82.77
42603;BME280;28233;55.748;48.752;2024-03-02T05:18:14;100740.25;;;0.59;81.83
42603;BME280;28233;55.748;48.752;2024-03-02T05:20:17;100757.09;;;0.73;81.08
42603;BME280;28233;55.748;48.752;2024-03-02T05:22:20;100758.47;;;0.82;79.87
42603;BME280;28233;55.748;48.752;2024-03-02T05:24:23;100755.31;;;0.85;79.52
42603;BME280;28233;55.748;48.752;2024-03-02T05:26:26;100753.09;;;0.94;79.04
42603;BME280;28233;55.748;48.752;2024-03-02T05:28:29;100750.47;;;1.05;78.66
42603;BME280;28233;55.748;48.752;2024-03-02T05:30:32;100742.25;;;1.12;78.25
42603;BME280;28233;55.748;48.752;2024-03-02T05:32:35;100745.16;;;0.99;77.21
42603;BME280;28233;55.748;48.752;2024-03-02T05:34:37;100743.88;;;1.01;77.67
42603;BME280;28233;55.748;48.752;2024-03-02T05:36:40;100756.94;;;1.04;77.40
42603;BME280;28233;55.748;48.752;2024-03-02T05:38:43;100757.16;;;1.03;77.30
42603;BME280;28233;55.748;48.752;2024-03-02T05:40:46;100754.22;;;1.04;77.00
42603;BME280;28233;55.748;48.752;2024-03-02T05:42:49;100754.16;;;1.11;77.39
42603;BME280;28233;55.748;48.752;2024-03-02T05:44:52;100752.41;;;1.17;76.90
42603;BME280;28233;55.748;48.752;2024-03-02T05:46:55;100760.44;;;1.23;76.83
42603;BME280;28233;55.748;48.752;2024-03-02T05:49:00;100765.97;;;1.29;75.31
42603;BME280;28233;55.748;48.752;2024-03-02T05:51:03;100763.22;;;1.17;74.97
42603;BME280;28233;55.748;48.752;2024-03-02T05:53:06;100762.28;;;1.11;74.65
42603;BME280;28233;55.748;48.752;2024-03-02T05:55:10;100765.72;;;1.18;75.38
42603;BME280;28233;55.748;48.752;2024-03-02T05:57:15;100767.47;;;1.24;75.53
42603;BME280;28233;55.748;48.752;2024-03-02T05:59:37;100768.50;;;1.42;75.10
42603;BME280;28233;55.748;48.752;2024-03-02T06:01:41;100775.84;;;1.53;73.61
42603;BME280;28233;55.748;48.752;2024-03-02T06:03:45;100773.00;;;1.60;73.14
42603;BME280;28233;55.748;48.752;2024-03-02T06:05:48;100771.03;;;1.67;71.61
42603;BME280;28233;55.748;48.752;2024-03-02T06:07:52;100783.16;;;1.64;70.33
42603;BME280;28233;55.748;48.752;2024-03-02T06:09:55;100786.34;;;1.61;69.51
42603;BME280;28233;55.748;48.752;2024-03-02T06:11:58;100792.31;;;1.52;68.73
42603;BME280;28233;55.748;48.752;2024-03-02T06:14:00;100784.53;;;1.55;68.79
42603;BME280;28233;55.748;48.752;2024-03-02T06:16:03;100788.53;;;1.53;69.01
42603;BME280;28233;55.748;48.752;2024-03-02T06:18:06;100801.91;;;1.66;68.81
42603;BME280;28233;55.748;48.752;2024-03-02T06:20:10;100800.72;;;1.74;68.64
42603;BME280;28233;55.748;48.752;2024-03-02T06:22:13;100800.75;;;1.85;68.42
42603;BME280;28233;55.748;48.752;2024-03-02T06:24:16;100795.38;;;1.97;68.31
42603;BME280;28233;55.748;48.752;2024-03-02T06:26:19;100807.53;;;2.06;68.00
42603;BME280;28233;55.748;48.752;2024-03-02T06:28:27;100809.06;;;2.02;67.61
42603;BME280;28233;55.748;48.752;2024-03-02T06:30:29;100817.91;;;2.09;67.64
42603;BME280;28233;55.748;48.752;2024-03-02T06:32:32;100810.34;;;2.23;67.92
42603;BME280;28233;55.748;48.752;2024-03-02T06:34:35;100805.09;;;2.40;67.71
42603;BME280;28233;55.748;48.752;2024-03-02T06:36:39;100810.84;;;2.56;67.17
42603;BME280;28233;55.748;48.752;2024-03-02T06:38:42;100802.97;;;2.54;66.35
42603;BME280;28233;55.748;48.752;2024-03-02T06:40:46;100800.09;;;2.49;66.01
42603;BME280;28233;55.748;48.752;2024-03-02T06:42:48;100799.16;;;2.55;65.65
42603;BME280;28233;55.748;48.752;2024-03-02T06:44:51;100790.09;;;2.61;65.44
42603;BME280;28233;55.748;48.752;2024-03-02T06:46:54;100798.94;;;2.68;65.16
42603;BME280;28233;55.748;48.752;2024-03-02T06:48:56;100789.38;;;2.66;65.28
42603;BME280;28233;55.748;48.752;2024-03-02T06:50:59;100784.66;;;2.61;64.88
42603;BME280;28233;55.748;48.752;2024-03-02T06:53:03;100788.66;;;2.59;64.30
42603;BME280;28233;55.748;48.752;2024-03-02T06:55:06;100785.81;;;2.65;65.09
42603;BME280;28233;55.748;48.752;2024-03-02T06:57:09;100790.19;;;2.66;64.60
42603;BME280;28233;55.748;48.752;2024-03-02T06:59:12;100797.25;;;2.79;65.29
42603;BME280;28233;55.748;48.752;2024-03-02T07:01:15;100792.34;;;3.05;65.21
42603;BME280;28233;55.748;48.752;2024-03-02T07:03:18;100803.00;;;3.35;64.15
42603;BME280;28233;55.748;48.752;2024-03-02T07:05:20;100805.66;;;3.47;63.07
42603;BME280;28233;55.748;48.752;2024-03-02T07:07:23;100803.84;;;3.52;63.23
42603;BME280;28233;55.748;48.752;2024-03-02T07:09:26;100805.88;;;3.74;63.00
42603;BME280;28233;55.748;48.752;2024-03-02T07:11:29;100815.41;;;4.05;61.59
42603;BME280;28233;55.748;48.752;2024-03-02T07:13:32;100812.66;;;4.22;61.28
42603;BME280;28233;55.748;48.752;2024-03-02T07:15:34;100818.69;;;4.41;60.94
42603;BME280;28233;55.748;48.752;2024-03-02T07:18:09;100825.34;;;4.50;60.30
42603;BME280;28233;55.748;48.752;2024-03-02T07:20:13;100824.75;;;4.65;60.53
42603;BME280;28233;55.748;48.752;2024-03-02T07:22:15;100826.47;;;4.71;59.60
42603;BME280;28233;55.748;48.752;2024-03-02T07:24:18;100833.22;;;4.85;59.50
42603;BME280;28233;55.748;48.752;2024-03-02T07:26:21;100832.75;;;4.94;58.90
42603;BME280;28233;55.748;48.752;2024-03-02T07:28:27;100834.72;;;4.98;58.89
42603;BME280;28233;55.748;48.752;2024-03-02T07:30:30;100826.88;;;5.02;58.48
42603;BME280;28233;55.748;48.752;2024-03-02T07:32:35;100832.16;;;5.08;57.95
42603;BME280;28233;55.748;48.752;2024-03-02T07:34:38;100830.75;;;5.06;57.44
42603;BME280;28233;55.748;48.752;2024-03-02T07:36:41;100827.00;;;5.12;57.57
42603;BME280;28233;55.748;48.752;2024-03-02T07:38:44;100825.63;;;5.09;58.03
42603;BME280;28233;55.748;48.752;2024-03-02T07:40:48;100826.44;;;5.10;57.61
42603;BME280;28233;55.748;48.752;2024-03-02T07:42:53;100815.03;;;5.13;57.57
42603;BME280;28233;55.748;48.752;2024-03-02T07:44:56;100821.75;;;5.05;57.65
42603;BME280;28233;55.748;48.752;2024-03-02T07:46:58;100821.19;;;5.03;58.10
42603;BME280;28233;55.748;48.752;2024-03-02T07:49:01;100816.22;;;5.00;57.80
42603;BME280;28233;55.748;48.752;2024-03-02T07:51:04;100817.25;;;4.94;57.77
42603;BME280;28233;55.748;48.752;2024-03-02T07:53:07;100823.13;;;4.86;57.63
42603;BME280;28233;55.748;48.752;2024-03-02T07:55:10;100830.53;;;4.69;58.23
42603;BME280;28233;55.748;48.752;2024-03-02T07:57:13;100826.56;;;4.59;58.57
42603;BME280;28233;55.748;48.752;2024-03-02T07:59:16;100832.84;;;4.60;58.79
42603;BME280;28233;55.748;48.752;2024-03-02T08:01:19;100826.41;;;4.66;58.93
42603;BME280;28233;55.748;48.752;2024-03-02T08:03:22;100830.25;;;4.87;58.42
42603;BME280;28233;55.748;48.752;2024-03-02T08:05:25;100837.78;;;5.02;57.97
42603;BME280;28233;55.748;48.752;2024-03-02T08:07:28;100838.22;;;5.16;57.29
42603;BME280;28233;55.748;48.752;2024-03-02T08:09:30;100837.66;;;5.14;57.11
42603;BME280;28233;55.748;48.752;2024-03-02T08:11:33;100832.22;;;5.14;57.21
42603;BME280;28233;55.748;48.752;2024-03-02T08:13:38;100839.41;;;5.03;57.17
42603;BME280;28233;55.748;48.752;2024-03-02T08:15:41;100842.25;;;4.91;57.02
42603;BME280;28233;55.748;48.752;2024-03-02T08:17:44;100836.38;;;4.99;57.10
42603;BME280;28233;55.748;48.752;2024-03-02T08:19:52;100845.78;;;5.08;56.87
42603;BME280;28233;55.748;48.752;2024-03-02T08:21:56;100843.69;;;5.16;56.83
42603;BME280;28233;55.748;48.752;2024-03-02T08:23:58;100842.97;;;5.25;57.02
42603;BME280;28233;55.748;48.752;2024-03-02T08:26:01;100839.03;;;5.38;56.22
42603;BME280;28233;55.748;48.752;2024-03-02T08:28:04;100835.25;;;5.39;55.85
42603;BME280;28233;55.748;48.752;2024-03-02T08:30:08;100843.28;;;5.51;55.58
42603;BME280;28233;55.748;48.752;2024-03-02T08:32:13;100838.25;;;5.65;55.07
42603;BME280;28233;55.748;48.752;2024-03-02T08:34:16;100834.28;;;5.78;54.95
42603;BME280;28233;55.748;48.752;2024-03-02T08:36:19;100831.78;;;5.98;54.71
42603;BME280;28233;55.748;48.752;2024-03-02T08:38:22;100832.47;;;6.16;54.35
42603;BME280;28233;55.748;48.752;2024-03-02T08:40:25;100841.09;;;6.34;53.38
42603;BME280;28233;55.748;48.752;2024-03-02T08:42:28;100832.22;;;6.49;53.05
42603;BME280;28233;55.748;48.752;2024-03-02T08:44:31;100834.47;;;6.63;53.13
42603;BME280;28233;55.748;48.752;2024-03-02T08:46:33;100839.22;;;6.77;52.61
42603;BME280;28233;55.748;48.752;2024-03-02T08:48:36;100837.06;;;6.85;52.03
42603;BME280;28233;55.748;48.752;2024-03-02T08:50:39;100847.47;;;6.93;52.26
42603;BME280;28233;55.748;48.752;2024-03-02T08:52:42;100836.09;;;7.06;51.12
42603;BME280;28233;55.748;48.752;2024-03-02T08:54:45;100841.00;;;7.09;50.64
42603;BME280;28233;55.748;48.752;2024-03-02T08:56:49;100841.31;;;7.13;50.55
42603;BME280;28233;55.748;48.752;2024-03-02T08:58:52;100831.75;;;7.15;50.16
42603;BME280;28233;55.748;48.752;2024-03-02T09:00:55;100826.50;;;7.04;49.58
42603;BME280;28233;55.748;48.752;2024-03-02T09:02:58;100839.53;;;6.91;49.91
42603;BME280;28233;55.748;48.752;2024-03-02T09:05:01;100840.63;;;6.85;49.90
42603;BME280;28233;55.748;48.752;2024-03-02T09:07:05;100838.38;;;6.77;49.47
42603;BME280;28233;55.748;48.752;2024-03-02T09:09:09;100840.22;;;6.66;49.87
42603;BME280;28233;55.748;48.752;2024-03-02T09:11:12;100832.84;;;6.67;49.89
42603;BME280;28233;55.748;48.752;2024-03-02T09:13:15;100835.31;;;6.63;49.65
42603;BME280;28233;55.748;48.752;2024-03-02T09:15:18;100841.59;;;6.64;49.92
42603;BME280;28233;55.748;48.752;2024-03-02T09:17:20;100845.31;;;6.52;49.03
42603;BME280;28233;55.748;48.752;2024-03-02T09:19:23;100849.16;;;6.51;49.85
42603;BME280;28233;55.748;48.752;2024-03-02T09:21:26;100848.19;;;6.73;49.71
42603;BME280;28233;55.748;48.752;2024-03-02T09:23:29;100848.50;;;6.82;49.28
42603;BME280;28233;55.748;48.752;2024-03-02T09:25:31;100852.38;;;6.86;49.71
42603;BME280;28233;55.748;48.752;2024-03-02T09:27:38;100851.34;;;6.97;48.85
42603;BME280;28233;55.748;48.752;2024-03-02T09:29:41;100838.81;;;7.06;49.03
42603;BME280;28233;55.748;48.752;2024-03-02T09:31:44;100839.16;;;7.15;48.87
42603;BME280;28233;55.748;48.752;2024-03-02T09:33:47;100839.41;;;7.18;49.37
42603;BME280;28233;55.748;48.752;2024-03-02T09:35:49;100839.44;;;7.29;48.99
42603;BME280;28233;55.748;48.752;2024-03-02T09:37:55;100839.19;;;7.35;48.59
42603;BME280;28233;55.748;48.752;2024-03-02T09:39:58;100833.25;;;7.49;48.73
42603;BME280;28233;55.748;48.752;2024-03-02T09:42:03;100840.91;;;7.57;48.13
42603;BME280;28233;55.748;48.752;2024-03-02T09:44:07;100839.03;;;7.62;48.08
42603;BME280;28233;55.748;48.752;2024-03-02T09:46:10;100845.31;;;7.68;47.41
42603;BME280;28233;55.748;48.752;2024-03-02T09:48:14;100834.38;;;7.68;46.90
42603;BME280;28233;55.748;48.752;2024-03-02T09:50:17;100836.28;;;7.68;46.64
42603;BME280;28233;55.748;48.752;2024-03-02T09:52:20;100839.84;;;7.58;46.75
42603;BME280;28233;55.748;48.752;2024-03-02T09:54:23;100832.44;;;7.58;46.64
42603;BME280;28233;55.748;48.752;2024-03-02T09:56:26;100846.69;;;7.60;46.39
42603;BME280;28233;55.748;48.752;2024-03-02T09:58:28;100833.00;;;7.55;46.84
42603;BME280;28233;55.748;48.752;2024-03-02T10:00:31;100832.75;;;7.67;46.74
42603;BME280;28233;55.748;48.752;2024-03-02T10:02:34;100834.38;;;7.73;46.49
42603;BME280;28233;55.748;48.752;2024-03-02T10:04:37;100833.81;;;7.71;46.72
42603;BME280;28233;55.748;48.752;2024-03-02T10:06:39;100827.03;;;7.74;46.81
42603;BME280;28233;55.748;48.752;2024-03-02T10:08:43;100838.47;;;7.71;46.69
42603;BME280;28233;55.748;48.752;2024-03-02T10:10:46;100832.44;;;7.58;47.00
42603;BME280;28233;55.748;48.752;2024-03-02T10:13:03;100836.81;;;7.59;46.93
42603;BME280;28233;55.748;48.752;2024-03-02T10:15:07;100835.75;;;7.66;47.28
42603;BME280;28233;55.748;48.752;2024-03-02T10:17:13;100833.00;;;7.71;47.18
42603;BME280;28233;55.748;48.752;2024-03-02T10:19:23;100834.41;;;7.78;46.69
42603;BME280;28233;55.748;48.752;2024-03-02T10:21:26;100834.69;;;7.77;46.34
42603;BME280;28233;55.748;48.752;2024-03-02T10:23:29;100831.13;;;7.81;46.42
42603;BME280;28233;55.748;48.752;2024-03-02T10:25:33;100831.94;;;7.77;45.97
42603;BME280;28233;55.748;48.752;2024-03-02T10:27:39;100832.50;;;7.79;46.55
42603;BME280;28233;55.748;48.752;2024-03-02T10:29:45;100829.22;;;7.82;46.50
42603;BME280;28233;55.748;48.752;2024-03-02T10:31:48;100839.34;;;7.92;46.30
42603;BME280;28233;55.748;48.752;2024-03-02T10:33:51;100829.25;;;7.97;46.59
42603;BME280;28233;55.748;48.752;2024-03-02T10:35:54;100834.72;;;8.18;45.97
42603;BME280;28233;55.748;48.752;2024-03-02T10:37:59;100833.91;;;8.17;45.44
42603;BME280;28233;55.748;48.752;2024-03-02T10:40:06;100835.00;;;8.16;45.56
42603;BME280;28233;55.748;48.752;2024-03-02T10:42:12;100831.72;;;8.19;45.44
42603;BME280;28233;55.748;48.752;2024-03-02T10:44:15;100836.91;;;8.16;45.00
42603;BME280;28233;55.748;48.752;2024-03-02T10:46:19;100843.19;;;7.96;45.66